Flight Track Log - Related Links

Times and Time Zones

All times are in EDT time to prevent confusion due to time zone crossing. See the AWE1940 flight status page for this flight to view local times or setup timezone preferences in your user account.

Time Position Orientation Groundspeed Altitude Reporting Facility
EDT Latitude Longitude Course Direction KTS MPH feet Rate Location/Type
Tue 10:22:47 PM 35.2306 -80.9392 72° East 169 194 1,500  Level Atlanta Center
Tue 10:24:00 PM 35.2797 -80.9017 32° Northeast 221 254 3,800 2,063 Climbing Atlanta Center
Tue 10:24:55 PM 35.2903 -80.8278 80° East 254 292 5,900 2,765 Climbing Atlanta Center
Tue 10:25:55 PM 35.3089 -80.7428 75° East 292 336 9,100 2,194 Climbing Atlanta Center
Tue 10:26:00 PM 35.2199 -80.5525 30° Northeast  Level FlightAware Approximate
Tue 10:27:00 PM 35.3167 -80.4816 90° East  Level FlightAware Approximate
Tue 10:27:50 PM 35.3531 -80.5275 76° East 336 387 12,300  Level Washington Center
Tue 10:28:00 PM 35.3594 -80.3681 72° East  Level FlightAware Approximate
Tue 10:28:51 PM 35.3817 -80.3917 75° East 387 445 14,700  Level Washington Center
Tue 10:29:49 PM 35.4078 -80.2556 77° East 407 468 16,800 2,017 Climbing Washington Center
Tue 10:30:50 PM 35.4383 -80.1172 75° East 414 476 18,700 1,721 Climbing Washington Center
Tue 10:31:51 PM 35.4767 -79.9817 71° East 414 476 20,300 1,462 Climbing Washington Center
Tue 10:32:49 PM 35.5131 -79.8381 73° East 419 482 21,600 1,424 Climbing Washington Center
Tue 10:33:49 PM 35.5497 -79.6894 73° East 431 496 23,100 1,279 Climbing Washington Center
Tue 10:34:51 PM 35.5883 -79.5331 73° East 460 529 24,200 1,200 Climbing Washington Center
Tue 10:35:49 PM 35.6350 -79.3819 69° East 475 547 25,500 1,322 Climbing Washington Center
Tue 10:36:49 PM 35.6914 -79.2414 64° Northeast 470 541 26,800 1,450 Climbing Washington Center
Tue 10:37:49 PM 35.7522 -79.0958 63° Northeast 470 541 28,400 1,500 Climbing Washington Center
Tue 10:38:49 PM 35.8106 -78.9500 64° Northeast 470 541 29,800 1,289 Climbing Washington Center
Tue 10:39:50 PM 35.8689 -78.8061 63° Northeast 470 541 31,000 1,250 Climbing Washington Center
Tue 10:40:49 PM 35.9353 -78.6628 60° Northeast 470 541 32,300 1,210 Climbing Washington Center
Tue 10:41:49 PM 36.0011 -78.5267 59° Northeast 465 535 33,400 1,041 Climbing Washington Center
Tue 10:42:50 PM 36.0692 -78.3878 59° Northeast 465 535 34,400 787 Climbing Washington Center
Tue 10:43:51 PM 36.1328 -78.2511 60° Northeast 465 535 35,000 303 Climbing Washington Center
Tue 10:44:49 PM 36.1983 -78.1144 59° Northeast 460 529 35,000  Level Washington Center
Tue 10:45:51 PM 36.2636 -77.9800 59° Northeast 455 524 35,000  Level Washington Center
Tue 10:46:49 PM 36.3289 -77.8403 60° Northeast 455 524 35,000  Level Washington Center
Tue 10:47:49 PM 36.3942 -77.7028 59° Northeast 455 524 35,000  Level Washington Center
Tue 10:48:51 PM 36.4483 -77.5828 61° Northeast 455 524 35,000  Level Washington Center
Tue 10:49:51 PM 36.5131 -77.4450 60° Northeast 455 524 35,000  Level Washington Center
Tue 10:50:49 PM 36.5778 -77.3094 59° Northeast 455 524 35,000  Level Washington Center
Tue 10:51:49 PM 36.6403 -77.1683 61° Northeast 455 524 35,000  Level Washington Center
Tue 10:53:00 PM 36.6939 -77.0173 66° East  Level FlightAware Approximate
Tue 10:53:51 PM 36.8183 -76.9178 66° East 450 518 35,000  Level Washington Center
Tue 10:54:49 PM 36.9194 -76.8258 36° Northeast 450 518 35,000  Level Washington Center
Tue 10:55:49 PM 37.0247 -76.7339 35° Northeast 450 518 35,000  Level Washington Center
Tue 10:56:51 PM 37.1258 -76.6392 37° Northeast 450 518 35,000  Level Washington Center
Tue 10:57:49 PM 37.2289 -76.5439 36° Northeast 455 524 35,000  Level Washington Center
Tue 10:58:50 PM 37.3358 -76.4564 33° Northeast 455 524 35,000  Level Washington Center
Tue 10:59:50 PM 37.4386 -76.3792 31° Northeast 449 517 35,000  Level Washington Center
Tue 11:00:50 PM 37.5475 -76.2964 31° Northeast 444 511 35,000  Level Washington Center
Tue 11:01:51 PM 37.6439 -76.2214 32° Northeast 444 511 35,000  Level Washington Center
Tue 11:02:49 PM 37.7631 -76.1356 30° Northeast 444 511 35,000  Level Washington Center
Tue 11:03:49 PM 37.8531 -76.0600 34° Northeast 444 511 35,000  Level Washington Center
Tue 11:04:51 PM 37.9597 -75.9789 31° Northeast 450 518 35,000  Level Washington Center
Tue 11:05:49 PM 38.0664 -75.8950 32° Northeast 445 512 35,000  Level Washington Center
Tue 11:06:49 PM 38.1708 -75.8136 31° Northeast 445 512 35,000  Level Washington Center
Tue 11:07:50 PM 38.2753 -75.7319 32° Northeast 445 512 35,000  Level Washington Center
Tue 11:08:50 PM 38.3878 -75.6419 32° Northeast 445 512 35,000  Level Washington Center
Tue 11:09:51 PM 38.4922 -75.5625 31° Northeast 439 505 35,000  Level Washington Center
Tue 11:10:49 PM 38.5942 -75.4800 32° Northeast 434 499 35,000  Level Washington Center
Tue 11:11:50 PM 38.7006 -75.3947 32° Northeast 434 499 35,000  Level Washington Center
Tue 11:12:51 PM 38.8044 -75.3172 30° Northeast 434 499 35,000  Level Washington Center
Tue 11:13:49 PM 38.9064 -75.2317 33° Northeast 434 499 35,000  Level Washington Center
Tue 11:14:50 PM 39.0103 -75.1483 32° Northeast 434 499 35,000  Level Washington Center
Tue 11:15:49 PM 39.1122 -75.0647 32° Northeast 434 499 35,000  Level Washington Center
Tue 11:16:49 PM 39.2139 -74.9836 32° Northeast 434 499 35,000  Level Washington Center
Tue 11:17:49 PM 39.3156 -74.8994 33° Northeast 434 499 35,000  Level Washington Center
Tue 11:18:50 PM 39.4214 -74.8178 31° Northeast 434 499 35,000  Level Washington Center
Tue 11:19:51 PM 39.5208 -74.7306 34° Northeast 434 499 35,000  Level Washington Center
Tue 11:21:28 PM 39.6889 -74.5961 32° Northeast 445 512 35,000  Level New York Center
Tue 11:22:29 PM 39.7808 -74.5203 32° Northeast 431 496 35,000  Level New York Center
Tue 11:24:28 PM 39.9864 -74.3497 32° Northeast 436 502 35,000  Level New York Center
Tue 11:25:29 PM 40.0892 -74.2628 33° Northeast 436 502 35,000 -30 Level New York Center
Tue 11:27:50 PM 40.3278 -74.0569 33° Northeast 427 491 34,900 -388 Descending Boston Center
Tue 11:28:50 PM 40.4331 -73.9778 30° Northeast 427 491 33,700 -2,350 Descending Boston Center
Tue 11:29:50 PM 40.5342 -73.8928 33° Northeast 427 491 30,200 -3,050 Descending Boston Center
Tue 11:30:50 PM 40.6372 -73.8075 32° Northeast 432 497 27,600 -2,550 Descending Boston Center
Tue 11:31:50 PM 40.7342 -73.7219 34° Northeast 432 497 25,100 -1,850 Descending Boston Center
Tue 11:32:50 PM 40.8331 -73.6306 35° Northeast 425 489 23,900 -550 Descending Boston Center
Tue 11:33:50 PM 40.9383 -73.5364 34° Northeast 436 502 24,000 50 Climbing Boston Center
Tue 11:34:50 PM 41.0475 -73.4503 31° Northeast 450 518 24,000 -900 Level Boston Center
Tue 11:35:50 PM 41.1606 -73.3775 26° Northeast 455 524 22,200 -2,050 Descending Boston Center
Tue 11:36:50 PM 41.2792 -73.4014 351° North 414 476 19,900 -1,100 Descending Boston Center
Tue 11:37:50 PM 41.3978 -73.4308 349° North 419 482 20,000  Climbing Boston Center
Tue 11:38:50 PM 41.5122 -73.4658 347° North 424 488 19,900 -950 Descending Boston Center
Tue 11:39:50 PM 41.6264 -73.4981 348° North 419 482 18,100 -2,450 Descending Boston Center
Tue 11:40:50 PM 41.7511 -73.5308 349° North 419 482 15,000 -3,058 Descending Boston Center
Tue 11:41:34 PM 41.8303 -73.5517 349° North 413 475 12,800 -2,700 Descending Boston Center
Tue 11:41:50 PM 41.8489 -73.5547 353° North 410 472 12,300 -1,271 Descending Boston Center
Tue 11:42:59 PM 41.9839 -73.5936 348° North 380 437 11,000 -600 Descending Boston Center
Tue 11:43:50 PM 42.0608 -73.6117 350° North 389 448 11,100  Climbing Boston Center
Tue 11:44:50 PM 42.1608 -73.6333 351° North 389 448 11,000 -100 Descending Boston Center
Tue 11:45:50 PM 42.2461 -73.6406 356° North 349 402 10,900 -900 Descending Boston Center
Tue 11:46:50 PM 42.3336 -73.6450 358° North 298 343 9,200 -1,636 Descending Boston Center
Tue 11:47:07 PM 42.3564 -73.6511 349° North 285 328 8,800 -1,769 Descending Boston Center
Tue 11:48:08 PM 42.4419 -73.6583 356° North 288 331 6,900 -1,721 Descending Boston Center
Tue 11:49:09 PM 42.5208 -73.6683 355° North 280 322 5,300 -1,574 Descending Boston Center
Tue 11:51:00 PM 42.6961 -73.7814 340° North  Level FlightAware Approximate

Login

Don't have an account? Register now (free) for customized features, flight alerts, and more!